createdAt,value
2023-04-06T00:01:09.254Z,0.3
2023-04-06T00:03:15.935Z,0.3
2023-04-06T00:05:09.553Z,0.3
2023-04-06T00:07:09.330Z,0.3
2023-04-06T00:09:16.014Z,0.3
2023-04-06T00:11:12.593Z,0.3
2023-04-06T00:13:09.079Z,0.3
2023-04-06T00:15:12.758Z,0.3
2023-04-06T00:17:12.662Z,0.3
2023-04-06T00:19:09.361Z,0.3
2023-04-06T00:21:12.643Z,0.3
2023-04-06T00:23:09.095Z,0.3
2023-04-06T00:25:09.312Z,0.3
2023-04-06T00:27:09.368Z,0.3
2023-04-06T00:29:09.492Z,0.3
2023-04-06T00:31:12.541Z,0.3
2023-04-06T00:33:09.174Z,0.3
2023-04-06T00:35:09.414Z,0.3
2023-04-06T00:37:12.570Z,0.3
2023-04-06T00:39:12.732Z,0.3
2023-04-06T00:41:12.714Z,0.3
2023-04-06T00:43:09.095Z,0.3
2023-04-06T00:45:12.789Z,0.2
2023-04-06T00:47:09.108Z,0.2
2023-04-06T00:49:09.387Z,0.2
2023-04-06T00:51:08.995Z,0.2
2023-04-06T00:53:09.370Z,0.2
2023-04-06T00:55:09.100Z,0.2
2023-04-06T00:57:12.621Z,0.2
2023-04-06T00:59:09.287Z,0.2
2023-04-06T01:01:09.192Z,0.2
2023-04-06T01:03:09.258Z,0.2
2023-04-06T01:05:12.529Z,0.2
2023-04-06T01:07:09.251Z,0.2
2023-04-06T01:09:09.328Z,0.2
2023-04-06T01:11:09.324Z,0.1
2023-04-06T01:13:12.402Z,0.1
2023-04-06T01:15:09.244Z,0.1
2023-04-06T01:17:16.038Z,0.1
2023-04-06T01:19:09.271Z,0
2023-04-06T01:21:12.568Z,0
2023-04-06T01:23:12.660Z,0
2023-04-06T01:25:09.230Z,0
2023-04-06T01:27:09.364Z,0.1
2023-04-06T01:29:09.388Z,0.2
2023-04-06T01:31:09.141Z,0.1
2023-04-06T01:33:09.282Z,0.1
2023-04-06T01:35:09.451Z,0
2023-04-06T01:37:09.578Z,0.1
2023-04-06T01:39:09.330Z,0.1
2023-04-06T01:41:12.761Z,0.1
2023-04-06T01:43:09.305Z,0.1
2023-04-06T01:45:09.480Z,0
2023-04-06T01:47:09.348Z,0
2023-04-06T01:49:09.449Z,0.1
2023-04-06T01:51:09.416Z,0
2023-04-06T01:53:09.516Z,0
2023-04-06T01:55:13.311Z,0.1
2023-04-06T01:57:12.295Z,0.1
2023-04-06T01:59:09.504Z,0.1
2023-04-06T02:01:09.080Z,0.1
2023-04-06T02:03:09.335Z,0.1
2023-04-06T02:05:09.344Z,0.1
2023-04-06T02:07:09.066Z,0.1
2023-04-06T02:09:09.641Z,0.1
2023-04-06T02:11:09.147Z,0.1
2023-04-06T02:13:09.304Z,0.1
2023-04-06T02:15:09.316Z,0.1
2023-04-06T02:17:15.733Z,0.1
2023-04-06T02:19:09.426Z,0.1
2023-04-06T02:21:09.319Z,0.1
2023-04-06T02:23:12.752Z,0.1
2023-04-06T02:25:09.084Z,0.1
2023-04-06T02:27:09.144Z,0.1
2023-04-06T02:29:09.549Z,0.1
2023-04-06T02:31:09.067Z,0.1
2023-04-06T02:33:12.726Z,0.1
2023-04-06T02:35:09.105Z,0.1
2023-04-06T02:37:12.690Z,0.1
2023-04-06T02:39:09.540Z,0.1
2023-04-06T02:41:12.665Z,0.1
2023-04-06T02:43:09.134Z,0.1
2023-04-06T02:45:15.701Z,0.1
2023-04-06T02:47:09.392Z,0.1
2023-04-06T02:49:15.825Z,0
2023-04-06T02:51:09.130Z,0.1
2023-04-06T02:53:12.731Z,0.1
2023-04-06T02:55:09.171Z,0.1
2023-04-06T02:57:09.285Z,0.1
2023-04-06T02:59:09.783Z,0
2023-04-06T03:01:09.265Z,0
2023-04-06T03:03:09.256Z,0
2023-04-06T03:05:09.315Z,0
2023-04-06T03:07:09.302Z,0
2023-04-06T03:09:09.651Z,0
2023-04-06T03:11:12.717Z,0
2023-04-06T03:13:09.162Z,0
2023-04-06T03:15:09.489Z,0
2023-04-06T03:17:12.395Z,0
2023-04-06T03:19:12.648Z,0
2023-04-06T03:21:09.100Z,0
2023-04-06T03:23:09.634Z,0
2023-04-06T03:25:09.469Z,0
2023-04-06T03:27:15.942Z,0
2023-04-06T03:29:12.738Z,0
2023-04-06T03:31:09.128Z,0
2023-04-06T03:33:12.783Z,0
2023-04-06T03:35:09.039Z,0
2023-04-06T03:37:10.548Z,0
2023-04-06T03:39:09.733Z,0
2023-04-06T03:41:09.242Z,0
2023-04-06T03:43:09.186Z,0
2023-04-06T03:45:09.578Z,0
2023-04-06T03:47:09.295Z,0
2023-04-06T03:49:12.717Z,0
2023-04-06T03:51:09.640Z,0
2023-04-06T03:53:12.454Z,0
2023-04-06T03:55:12.882Z,0
2023-04-06T03:57:09.224Z,0
2023-04-06T03:59:09.130Z,0
2023-04-06T04:01:12.744Z,0
2023-04-06T04:03:09.059Z,0.1
2023-04-06T04:05:15.757Z,0.2
2023-04-06T04:07:09.020Z,0.2
2023-04-06T04:09:09.357Z,0.3
2023-04-06T04:11:09.173Z,0.4
2023-04-06T04:13:09.279Z,0.5
2023-04-06T04:15:09.492Z,0.8
2023-04-06T04:17:12.858Z,1.2
2023-04-06T04:19:09.543Z,1.7
2023-04-06T04:23:09.130Z,3.7
2023-04-06T04:25:09.075Z,5.5
2023-04-06T04:27:12.376Z,8.2
2023-04-06T04:29:09.330Z,12.2
2023-04-06T04:31:09.111Z,17.3
2023-04-06T04:33:09.129Z,24.5
2023-04-06T04:35:09.374Z,34.8
2023-04-06T04:37:12.555Z,49.4
2023-04-06T04:39:09.387Z,63.4
2023-04-06T04:43:12.696Z,109.9
2023-04-06T04:45:09.106Z,134.3
2023-04-06T04:47:12.341Z,164
2023-04-06T04:49:09.251Z,190.6
2023-04-06T04:51:09.386Z,232.8
2023-04-06T04:53:09.390Z,270.4
2023-04-06T04:55:09.266Z,314.2
2023-04-06T04:57:09.290Z,347.2
2023-04-06T04:59:15.718Z,403.4
2023-04-06T05:01:09.402Z,445.9
2023-04-06T05:03:15.886Z,518
2023-04-06T05:05:09.378Z,544.6
2023-04-06T05:07:12.680Z,601.8
2023-04-06T05:11:09.157Z,735.1
2023-04-06T05:13:12.615Z,772.8
2023-04-06T05:15:09.262Z,854.1
2023-04-06T05:17:09.234Z,897.8
2023-04-06T05:19:12.753Z,943.9
2023-04-06T05:21:09.547Z,1096.6
2023-04-06T05:23:12.465Z,1152.9
2023-04-06T05:25:12.859Z,1212
2023-04-06T05:27:09.337Z,1274.1
2023-04-06T05:29:09.512Z,1339.4
2023-04-06T05:31:16.012Z,1408.1
2023-04-06T05:33:12.792Z,1480.3
2023-04-06T05:35:12.798Z,1556.2
2023-04-06T05:37:12.402Z,1556.2
2023-04-06T05:39:09.563Z,1636
2023-04-06T05:41:15.867Z,1719.9
2023-04-06T05:43:12.530Z,1808
2023-04-06T05:45:12.858Z,1900.7
2023-04-06T05:47:12.745Z,1900.7
2023-04-06T05:49:09.761Z,1998.2
2023-04-06T05:51:09.306Z,2100.6
2023-04-06T05:53:15.805Z,2100.6
2023-04-06T05:57:09.187Z,2208.3
2023-04-06T05:59:09.514Z,2321.6
2023-04-06T06:03:09.300Z,2440.6
2023-04-06T06:05:09.197Z,2565.7
2023-04-06T06:07:12.696Z,2565.7
2023-04-06T06:09:09.282Z,2697.3
2023-04-06T06:11:09.120Z,2697.3
2023-04-06T06:13:09.434Z,2697.3
2023-04-06T06:15:09.356Z,2835.6
2023-04-06T06:17:12.630Z,2835.6
2023-04-06T06:19:09.237Z,2981
2023-04-06T06:21:12.834Z,2981
2023-04-06T06:23:09.100Z,2981
2023-04-06T06:25:09.760Z,2981
2023-04-06T06:27:09.465Z,3133.8
2023-04-06T06:29:09.597Z,4914.8
2023-04-06T06:31:12.457Z,6634.2
2023-04-06T06:33:09.341Z,6974.4
2023-04-06T06:35:09.400Z,7332
2023-04-06T06:37:12.667Z,7707.9
2023-04-06T06:39:09.884Z,8103.1
2023-04-06T06:41:09.243Z,8103.1
2023-04-06T06:43:09.642Z,8518.5
2023-04-06T06:45:12.982Z,8955.3
2023-04-06T06:47:09.200Z,9414.4
2023-04-06T06:49:12.749Z,9897.1
2023-04-06T06:51:09.174Z,9897.1
2023-04-06T06:53:09.082Z,10404.6
2023-04-06T06:55:09.451Z,10938
2023-04-06T06:57:09.639Z,10938
2023-04-06T06:59:09.292Z,11498.8
2023-04-06T07:01:09.104Z,12088.4
2023-04-06T07:03:09.605Z,12708.2
2023-04-06T07:07:09.392Z,13359.7
2023-04-06T07:09:09.179Z,14044.7
2023-04-06T07:11:09.212Z,14044.7
2023-04-06T07:13:12.816Z,14764.8
2023-04-06T07:15:09.127Z,14764.8
2023-04-06T07:17:09.311Z,15521.8
2023-04-06T07:19:09.188Z,15521.8
2023-04-06T07:21:09.146Z,14764.8
2023-04-06T07:23:12.785Z,6002.9
2023-04-06T07:25:09.562Z,5166.8
2023-04-06T07:27:12.755Z,5166.8
2023-04-06T07:29:09.234Z,5166.8
2023-04-06T07:31:09.164Z,5166.8
2023-04-06T07:35:09.141Z,5431.7
2023-04-06T07:37:09.446Z,5431.7
2023-04-06T07:39:09.447Z,5431.7
2023-04-06T07:41:09.171Z,5431.7
2023-04-06T07:43:12.690Z,5431.7
2023-04-06T07:45:09.579Z,5710.1
2023-04-06T07:47:09.322Z,5710.1
2023-04-06T07:49:09.352Z,5710.1
2023-04-06T07:51:12.410Z,5710.1
2023-04-06T07:53:12.515Z,5710.1
2023-04-06T07:55:09.353Z,6002.9
2023-04-06T07:57:09.179Z,6002.9
2023-04-06T07:59:09.440Z,6002.9
2023-04-06T08:01:09.458Z,6002.9
2023-04-06T08:03:09.303Z,6310.7
2023-04-06T08:07:09.395Z,6310.7
2023-04-06T08:09:12.895Z,6310.7
2023-04-06T08:11:12.695Z,6634.2
2023-04-06T08:13:12.587Z,6634.2
2023-04-06T08:15:09.433Z,6634.2
2023-04-06T08:17:12.814Z,6634.2
2023-04-06T08:19:09.145Z,6634.2
2023-04-06T08:21:12.632Z,6974.4
2023-04-06T08:23:09.621Z,6974.4
2023-04-06T08:25:09.294Z,6974.4
2023-04-06T08:27:09.403Z,6974.4
2023-04-06T08:29:09.455Z,7332
2023-04-06T08:31:09.325Z,7332
2023-04-06T08:33:09.380Z,7332
2023-04-06T08:35:12.848Z,7332
2023-04-06T08:37:09.157Z,7707.9
2023-04-06T08:39:09.465Z,7707.9
2023-04-06T08:41:09.183Z,7707.9
2023-04-06T08:43:12.734Z,7707.9
2023-04-06T08:45:09.451Z,8103.1
2023-04-06T08:47:09.291Z,8103.1
2023-04-06T08:49:09.381Z,8103.1
2023-04-06T08:51:09.470Z,8518.5
2023-04-06T08:53:09.399Z,8518.5
2023-04-06T08:55:09.425Z,8518.5
2023-04-06T08:57:12.889Z,8518.5
2023-04-06T08:59:12.740Z,8518.5
2023-04-06T09:01:09.347Z,8518.5
2023-04-06T09:03:16.253Z,8518.5
2023-04-06T09:05:12.755Z,8518.5
2023-04-06T09:07:09.370Z,8518.5
2023-04-06T09:09:12.849Z,8518.5
2023-04-06T09:11:09.173Z,8955.3
2023-04-06T09:13:09.389Z,8955.3
2023-04-06T09:15:12.419Z,8955.3
2023-04-06T09:17:12.762Z,8955.3
2023-04-06T09:19:09.347Z,8955.3
2023-04-06T09:21:09.467Z,8955.3
2023-04-06T09:23:12.743Z,9414.4
2023-04-06T09:25:12.651Z,9414.4
2023-04-06T09:29:12.605Z,9414.4
2023-04-06T09:31:09.326Z,9414.4
2023-04-06T09:33:12.714Z,9414.4
2023-04-06T09:35:09.181Z,9414.4
2023-04-06T09:37:15.882Z,9414.4
2023-04-06T09:39:09.347Z,9414.4
2023-04-06T09:41:15.929Z,9414.4
2023-04-06T09:43:12.650Z,9897.1
2023-04-06T09:45:09.231Z,9897.1
2023-04-06T09:47:15.852Z,9897.1
2023-04-06T09:49:09.429Z,9897.1
2023-04-06T09:51:15.921Z,9897.1
2023-04-06T09:53:09.313Z,9897.1
2023-04-06T09:55:16.130Z,10404.6
2023-04-06T09:57:09.231Z,7707.9
2023-04-06T09:59:12.854Z,10404.6
2023-04-06T10:01:09.411Z,10404.6
2023-04-06T10:05:09.177Z,10938
2023-04-06T10:07:09.267Z,10938
2023-04-06T10:09:09.379Z,11498.8
2023-04-06T10:11:09.177Z,11498.8
2023-04-06T10:13:12.783Z,11498.8
2023-04-06T10:15:09.221Z,11498.8
2023-04-06T10:17:09.377Z,12088.4
2023-04-06T10:19:09.187Z,12088.4
2023-04-06T10:21:09.574Z,9414.4
2023-04-06T10:23:09.305Z,9897.1
2023-04-06T10:25:09.229Z,10404.6
2023-04-06T10:27:09.320Z,12708.2
2023-04-06T10:29:09.592Z,10404.6
2023-04-06T10:31:09.430Z,9897.1
2023-04-06T10:33:12.877Z,10938
2023-04-06T10:35:09.191Z,12708.2
2023-04-06T10:37:09.240Z,10404.6
2023-04-06T10:39:12.750Z,10938
2023-04-06T10:41:09.190Z,13359.7
2023-04-06T10:43:09.249Z,10938
2023-04-06T10:45:09.609Z,13359.7
2023-04-06T10:47:09.335Z,13359.7
2023-04-06T10:49:09.173Z,10938
2023-04-06T10:51:09.472Z,14044.7
2023-04-06T10:53:09.222Z,12708.2
2023-04-06T10:55:09.178Z,12088.4
2023-04-06T10:57:09.498Z,10938
2023-04-06T10:59:12.795Z,11498.8
2023-04-06T11:03:15.867Z,12088.4
2023-04-06T11:05:12.630Z,12088.4
2023-04-06T11:07:09.381Z,12708.2
2023-04-06T11:09:09.225Z,10938
2023-04-06T11:11:09.469Z,12708.2
2023-04-06T11:13:09.204Z,12708.2
2023-04-06T11:15:12.678Z,12708.2
2023-04-06T11:17:09.293Z,12088.4
2023-04-06T11:19:09.286Z,12088.4
2023-04-06T11:21:12.773Z,12088.4
2023-04-06T11:23:09.171Z,12088.4
2023-04-06T11:27:12.804Z,9897.1
2023-04-06T11:29:12.599Z,9414.4
2023-04-06T11:31:09.242Z,9414.4
2023-04-06T11:33:09.234Z,8955.3
2023-04-06T11:35:09.176Z,9414.4
2023-04-06T11:37:12.815Z,12708.2
2023-04-06T11:39:09.182Z,12088.4
2023-04-06T11:41:09.410Z,12088.4
2023-04-06T11:43:12.627Z,12708.2
2023-04-06T11:45:12.898Z,12708.2
2023-04-06T11:47:12.608Z,12708.2
2023-04-06T11:49:09.178Z,12708.2
2023-04-06T11:51:12.814Z,12708.2
2023-04-06T11:53:09.157Z,12708.2
2023-04-06T11:55:09.313Z,12708.2
2023-04-06T11:57:09.183Z,12708.2
2023-04-06T11:59:12.720Z,12708.2
2023-04-06T12:01:12.651Z,12708.2
2023-04-06T12:03:09.518Z,12708.2
2023-04-06T12:05:09.262Z,12708.2
2023-04-06T12:07:09.203Z,12708.2
2023-04-06T12:09:09.465Z,12708.2
2023-04-06T12:11:12.790Z,12088.4
2023-04-06T12:13:09.137Z,12088.4
2023-04-06T12:15:09.437Z,12088.4
2023-04-06T12:17:09.424Z,12088.4
2023-04-06T12:19:12.725Z,12088.4
2023-04-06T12:21:15.997Z,10938
2023-04-06T12:23:15.437Z,8518.5
2023-04-06T12:25:09.280Z,11498.8
2023-04-06T12:27:10.777Z,12708.2
2023-04-06T12:29:12.752Z,13359.7
2023-04-06T12:31:09.149Z,13359.7
2023-04-06T12:33:09.523Z,13359.7
2023-04-06T12:35:12.842Z,12708.2
2023-04-06T12:37:09.273Z,12708.2
2023-04-06T12:39:09.418Z,12088.4
2023-04-06T12:41:12.722Z,12088.4
2023-04-06T12:43:15.810Z,12088.4
2023-04-06T12:45:15.847Z,12708.2
2023-04-06T12:47:09.219Z,12708.2
2023-04-06T12:49:09.221Z,12708.2
2023-04-06T12:51:09.713Z,12708.2
2023-04-06T12:53:09.432Z,12088.4
2023-04-06T12:55:09.287Z,12088.4
2023-04-06T12:57:09.435Z,12088.4
2023-04-06T12:59:09.338Z,12088.4
2023-04-06T13:01:09.205Z,12088.4
2023-04-06T13:03:09.538Z,12088.4
2023-04-06T13:07:09.159Z,11498.8
2023-04-06T13:09:09.349Z,11498.8
2023-04-06T13:11:12.616Z,11498.8
2023-04-06T13:13:09.227Z,11498.8
2023-04-06T13:15:12.585Z,11498.8
2023-04-06T13:17:09.537Z,11498.8
2023-04-06T13:19:09.611Z,11498.8
2023-04-06T13:21:09.596Z,11498.8
2023-04-06T13:23:12.764Z,11498.8
2023-04-06T13:25:09.146Z,11498.8
2023-04-06T13:27:09.204Z,11498.8
2023-04-06T13:29:12.746Z,10938
2023-04-06T13:31:09.384Z,10938
2023-04-06T13:33:09.699Z,10938
2023-04-06T13:35:12.666Z,10938
2023-04-06T13:37:09.411Z,10938
2023-04-06T13:41:09.218Z,10938
2023-04-06T13:43:09.312Z,10938
2023-04-06T13:45:16.031Z,10404.6
2023-04-06T13:47:12.478Z,10404.6
2023-04-06T13:51:09.601Z,10404.6
2023-04-06T13:53:13.150Z,10404.6
2023-04-06T13:55:09.723Z,10404.6
2023-04-06T13:57:09.573Z,10404.6
2023-04-06T13:59:13.169Z,10404.6
2023-04-06T14:01:09.634Z,9897.1
2023-04-06T14:03:09.666Z,9897.1
2023-04-06T14:05:16.214Z,9897.1
2023-04-06T14:07:09.626Z,9897.1
2023-04-06T14:09:09.592Z,9897.1
2023-04-06T14:11:13.083Z,9897.1
2023-04-06T14:13:09.698Z,9897.1
2023-04-06T14:15:09.580Z,9897.1
2023-04-06T14:17:09.575Z,9414.4
2023-04-06T14:19:09.557Z,9414.4
2023-04-06T14:21:09.779Z,9414.4
2023-04-06T14:23:09.589Z,9414.4
2023-04-06T14:25:09.698Z,9414.4
2023-04-06T14:29:09.809Z,8955.3
2023-04-06T14:31:09.712Z,8955.3
2023-04-06T14:33:09.736Z,8955.3
2023-04-06T14:35:09.703Z,8955.3
2023-04-06T14:37:09.741Z,8955.3
2023-04-06T14:39:09.620Z,8955.3
2023-04-06T14:41:16.318Z,8518.5
2023-04-06T14:43:09.691Z,8518.5
2023-04-06T14:45:09.647Z,8518.5
2023-04-06T14:47:13.127Z,8518.5
2023-04-06T14:49:09.651Z,8103.1
2023-04-06T14:51:16.396Z,8103.1
2023-04-06T14:53:09.831Z,8103.1
2023-04-06T14:55:09.825Z,8103.1
2023-04-06T14:57:09.606Z,7707.9
2023-04-06T14:59:09.884Z,7707.9
2023-04-06T15:01:09.763Z,7707.9
2023-04-06T15:03:09.840Z,7332
2023-04-06T15:07:09.671Z,7332
2023-04-06T15:09:09.729Z,6974.4
2023-04-06T15:11:09.799Z,6974.4
2023-04-06T15:13:13.102Z,6974.4
2023-04-06T15:15:09.804Z,6974.4
2023-04-06T15:17:09.798Z,6974.4
2023-04-06T15:19:13.236Z,6974.4
2023-04-06T15:21:13.193Z,6634.2
2023-04-06T15:25:16.594Z,6634.2
2023-04-06T15:27:09.628Z,6634.2
2023-04-06T15:29:09.907Z,6310.7
2023-04-06T15:31:10.183Z,6310.7
2023-04-06T15:33:10.062Z,6310.7
2023-04-06T15:35:09.562Z,6310.7
2023-04-06T15:41:09.564Z,6002.9
2023-04-06T15:43:09.696Z,6002.9
2023-04-06T15:45:09.611Z,6002.9
2023-04-06T15:47:09.821Z,5710.1
2023-04-06T15:49:09.893Z,5710.1
2023-04-06T15:51:09.871Z,5710.1
2023-04-06T15:53:09.591Z,5710.1
2023-04-06T15:55:10.333Z,5431.7
2023-04-06T15:57:13.024Z,5166.8
2023-04-06T15:59:13.865Z,5166.8
2023-04-06T16:01:09.755Z,5166.8
2023-04-06T16:03:09.951Z,5166.8
2023-04-06T16:05:09.565Z,4914.8
2023-04-06T16:07:16.240Z,4675.1
2023-04-06T16:09:09.617Z,4675.1
2023-04-06T16:13:09.555Z,4230.2
2023-04-06T16:15:09.625Z,3641
2023-04-06T16:17:09.902Z,3827.6
2023-04-06T16:21:09.619Z,3641
2023-04-06T16:23:09.763Z,3463.4
2023-04-06T16:25:09.622Z,3294.5
2023-04-06T16:27:09.618Z,3133.8
2023-04-06T16:29:09.627Z,3133.8
2023-04-06T16:31:09.645Z,3133.8
2023-04-06T16:33:09.762Z,2835.6
2023-04-06T16:35:09.556Z,2440.6
2023-04-06T16:37:13.080Z,2440.6
2023-04-06T16:39:09.597Z,2440.6
2023-04-06T16:41:13.132Z,2565.7
2023-04-06T16:43:09.803Z,2440.6
2023-04-06T16:45:09.780Z,2321.6
2023-04-06T16:47:09.841Z,2321.6
2023-04-06T16:49:09.783Z,2321.6
2023-04-06T16:51:09.644Z,1998.2
2023-04-06T16:53:09.854Z,1719.9
2023-04-06T16:55:09.683Z,1556.2
2023-04-06T16:57:14.213Z,1480.3
2023-04-06T16:59:13.188Z,1408.1
2023-04-06T17:01:09.737Z,1339.4
2023-04-06T17:03:09.721Z,1212
2023-04-06T17:05:09.669Z,1096.6
2023-04-06T17:07:09.819Z,1043.1
2023-04-06T17:09:09.772Z,992.3
2023-04-06T17:11:12.770Z,943.9
2023-04-06T17:13:12.718Z,854.1
2023-04-06T17:15:09.624Z,812.4
2023-04-06T17:17:12.991Z,699.2
2023-04-06T17:19:09.562Z,665.1
2023-04-06T17:21:09.836Z,601.8
2023-04-06T17:23:09.611Z,572.5
2023-04-06T17:25:10.056Z,544.6
2023-04-06T17:27:09.632Z,492.7
2023-04-06T17:29:09.588Z,445.9
2023-04-06T17:31:09.973Z,424.1
2023-04-06T17:33:10.122Z,383.8
2023-04-06T17:35:09.819Z,347.2
2023-04-06T17:37:09.751Z,314.2
2023-04-06T17:39:13.276Z,270.4
2023-04-06T17:41:09.595Z,244.7
2023-04-06T17:43:09.746Z,221.4
2023-04-06T17:45:09.677Z,190.6
2023-04-06T17:47:09.815Z,156
2023-04-06T17:49:09.766Z,127.7
2023-04-06T17:51:09.655Z,109.9
2023-04-06T17:53:09.739Z,90
2023-04-06T17:55:16.507Z,70.1
2023-04-06T17:57:16.298Z,57.4
2023-04-06T17:59:09.590Z,44.7
2023-04-06T18:01:09.780Z,34.8
2023-04-06T18:05:13.208Z,19.1
2023-04-06T18:07:09.585Z,14.2
2023-04-06T18:11:12.967Z,6.7
2023-04-06T18:13:13.132Z,4.7
2023-04-06T18:15:09.704Z,3.2
2023-04-06T18:17:16.407Z,2.1
2023-04-06T18:19:09.615Z,1.4
2023-04-06T18:21:12.784Z,1
2023-04-06T18:23:16.262Z,0.7
2023-04-06T18:25:09.679Z,0.4
2023-04-06T18:27:13.205Z,0.3
2023-04-06T18:29:09.777Z,0.2
2023-04-06T18:31:09.772Z,0.2
2023-04-06T18:33:09.767Z,0.1
2023-04-06T18:35:09.797Z,0
2023-04-06T18:37:09.762Z,0
2023-04-06T18:39:09.754Z,0
2023-04-06T18:41:09.746Z,0
2023-04-06T18:43:09.670Z,0
2023-04-06T18:45:09.762Z,0
2023-04-06T18:47:09.625Z,1
2023-04-06T18:49:09.858Z,1
2023-04-06T18:51:13.258Z,1
2023-04-06T18:53:09.704Z,1
2023-04-06T18:57:09.839Z,1
2023-04-06T18:59:09.732Z,1
2023-04-06T19:01:09.582Z,1
2023-04-06T19:03:09.984Z,1
2023-04-06T19:05:09.776Z,1
2023-04-06T19:07:13.318Z,1
2023-04-06T19:09:12.791Z,1
2023-04-06T19:13:09.715Z,1
2023-04-06T19:15:10.032Z,1
2023-04-06T19:17:09.606Z,1
2023-04-06T19:19:09.699Z,1
2023-04-06T19:21:09.646Z,1
2023-04-06T19:23:09.665Z,1
2023-04-06T19:25:09.785Z,1
2023-04-06T19:27:09.829Z,1
2023-04-06T19:29:09.599Z,1
2023-04-06T19:31:09.722Z,1
2023-04-06T19:33:09.753Z,1
2023-04-06T19:35:13.144Z,1
2023-04-06T19:37:09.783Z,1
2023-04-06T19:39:13.112Z,1
2023-04-06T19:41:09.712Z,1
2023-04-06T19:45:13.240Z,1
2023-04-06T19:47:16.268Z,1
2023-04-06T19:49:13.223Z,1
2023-04-06T19:51:09.754Z,1
2023-04-06T19:53:09.613Z,1
2023-04-06T19:55:13.188Z,0
2023-04-06T19:57:16.322Z,0
2023-04-06T19:59:09.598Z,0
2023-04-06T20:01:09.631Z,0
2023-04-06T20:03:09.956Z,0
2023-04-06T20:05:09.622Z,0
2023-04-06T20:07:09.789Z,0
2023-04-06T20:09:13.241Z,0
2023-04-06T20:11:09.707Z,0
2023-04-06T20:13:09.856Z,0
2023-04-06T20:15:13.158Z,0
2023-04-06T20:17:09.734Z,0
2023-04-06T20:19:16.296Z,0
2023-04-06T20:21:09.645Z,0
2023-04-06T20:23:09.729Z,0
2023-04-06T20:25:09.735Z,0
2023-04-06T20:27:09.902Z,0
2023-04-06T20:29:09.900Z,0
2023-04-06T20:31:09.890Z,0
2023-04-06T20:33:13.124Z,0
2023-04-06T20:35:09.815Z,0
2023-04-06T20:37:09.633Z,0
2023-04-06T20:39:09.912Z,0
2023-04-06T20:41:13.028Z,0
2023-04-06T20:43:13.199Z,0
2023-04-06T20:45:09.643Z,0
2023-04-06T20:47:09.766Z,0
2023-04-06T20:49:09.632Z,0
2023-04-06T20:51:13.320Z,0
2023-04-06T20:53:10.029Z,0
2023-04-06T20:55:09.636Z,0
2023-04-06T20:57:16.362Z,0
2023-04-06T21:01:09.667Z,0
2023-04-06T21:03:13.064Z,0
2023-04-06T21:05:09.610Z,0
2023-04-06T21:07:13.228Z,0
2023-04-06T21:09:09.662Z,0
2023-04-06T21:11:16.388Z,0
2023-04-06T21:13:09.728Z,0
2023-04-06T21:15:09.653Z,0
2023-04-06T21:17:09.630Z,0
2023-04-06T21:19:09.860Z,0
2023-04-06T21:21:12.945Z,0
2023-04-06T21:23:09.737Z,0
2023-04-06T21:25:09.877Z,0
2023-04-06T21:27:09.668Z,0
2023-04-06T21:29:09.628Z,0.1
2023-04-06T21:31:09.642Z,0.1
2023-04-06T21:33:09.851Z,0.1
2023-04-06T21:35:09.850Z,0
2023-04-06T21:37:09.730Z,0
2023-04-06T21:39:16.418Z,0
2023-04-06T21:41:09.700Z,0
2023-04-06T21:43:09.770Z,0
2023-04-06T21:45:13.243Z,0
2023-04-06T21:47:13.063Z,0
2023-04-06T21:49:09.628Z,0
2023-04-06T21:51:09.713Z,0
2023-04-06T21:53:13.284Z,0
2023-04-06T21:55:09.805Z,0
2023-04-06T21:57:09.957Z,0
2023-04-06T21:59:12.814Z,0
2023-04-06T22:01:09.973Z,0
2023-04-06T22:03:09.744Z,0
2023-04-06T22:05:09.695Z,0
2023-04-06T22:07:16.358Z,0
2023-04-06T22:09:09.911Z,0
2023-04-06T22:11:13.249Z,0
2023-04-06T22:13:09.990Z,0
2023-04-06T22:15:09.980Z,0
2023-04-06T22:17:09.904Z,0
2023-04-06T22:19:09.883Z,0
2023-04-06T22:21:09.659Z,0
2023-04-06T22:23:09.893Z,0
2023-04-06T22:25:09.646Z,0
2023-04-06T22:27:09.842Z,0
2023-04-06T22:29:09.912Z,0
2023-04-06T22:31:09.820Z,0
2023-04-06T22:33:13.054Z,0
2023-04-06T22:35:09.761Z,0
2023-04-06T22:37:13.206Z,0
2023-04-06T22:39:10.037Z,0
2023-04-06T22:41:10.016Z,0
2023-04-06T22:43:09.652Z,0
2023-04-06T22:45:09.707Z,0.1
2023-04-06T22:47:16.346Z,0.1
2023-04-06T22:49:09.740Z,0
2023-04-06T22:51:09.986Z,0
2023-04-06T22:53:09.785Z,0
2023-04-06T22:55:13.697Z,0
2023-04-06T22:57:09.956Z,0
2023-04-06T22:59:09.923Z,0
2023-04-06T23:01:09.664Z,0
2023-04-06T23:03:09.819Z,0
2023-04-06T23:05:16.360Z,0
2023-04-06T23:07:09.827Z,0
2023-04-06T23:09:13.345Z,0
2023-04-06T23:11:12.893Z,0
2023-04-06T23:13:09.759Z,0
2023-04-06T23:17:16.280Z,0
2023-04-06T23:19:13.073Z,0
2023-04-06T23:21:09.681Z,0
2023-04-06T23:23:09.677Z,0
2023-04-06T23:25:09.756Z,0
2023-04-06T23:27:09.698Z,0
2023-04-06T23:29:13.206Z,0
2023-04-06T23:31:09.746Z,0
2023-04-06T23:33:13.326Z,0
2023-04-06T23:35:12.947Z,0
2023-04-06T23:37:09.876Z,0
2023-04-06T23:39:09.967Z,0
2023-04-06T23:41:09.912Z,0
2023-04-06T23:43:13.129Z,0
2023-04-06T23:45:09.707Z,0
2023-04-06T23:47:10.112Z,0
2023-04-06T23:49:09.675Z,0
2023-04-06T23:51:13.275Z,0
2023-04-06T23:53:09.772Z,0
2023-04-06T23:55:09.670Z,0
2023-04-06T23:57:10.409Z,0
2023-04-06T23:59:09.932Z,0
